createdAt,value
2022-08-22T00:01:13.491Z,100890.59
2022-08-22T00:02:43.289Z,100846.91
2022-08-22T00:02:57.486Z,100899.00
2022-08-22T00:04:21.267Z,100889.69
2022-08-22T00:07:18.261Z,100887.06
2022-08-22T00:10:25.401Z,100886.22
2022-08-22T00:13:18.544Z,100883.66
2022-08-22T00:16:03.746Z,100891.50
2022-08-22T00:19:02.941Z,100883.66
2022-08-22T00:22:07.925Z,100881.03
2022-08-22T00:25:47.144Z,100872.38
2022-08-22T00:28:41.981Z,100882.00
2022-08-22T00:31:31.249Z,100894.19
2022-08-22T00:34:26.476Z,100895.97
2022-08-22T00:37:20.756Z,100895.16
2022-08-22T00:40:28.593Z,100897.75
2022-08-22T00:43:30.679Z,100899.53
2022-08-22T00:46:23.764Z,100904.72
2022-08-22T00:49:40.053Z,100890.81
2022-08-22T00:52:52.696Z,100896.91
2022-08-22T00:56:02.001Z,100893.47
2022-08-22T00:59:18.083Z,100896.09
2022-08-22T01:02:21.043Z,100907.41
2022-08-22T01:05:38.865Z,100907.44
2022-08-22T01:08:39.128Z,100896.09
2022-08-22T01:11:42.796Z,100890.91
2022-08-22T01:14:34.387Z,100899.63
2022-08-22T01:17:48.632Z,100894.41
2022-08-22T01:20:43.313Z,100900.50
2022-08-22T01:23:50.739Z,100897.03
2022-08-22T01:27:13.250Z,100889.19
2022-08-22T01:30:44.239Z,100894.38
2022-08-22T01:33:55.669Z,100897.91
2022-08-22T01:37:07.954Z,100891.81
2022-08-22T01:40:11.431Z,100890.06
2022-08-22T01:43:12.049Z,100885.72
2022-08-22T01:46:21.202Z,100877.00
2022-08-22T01:49:38.649Z,100896.16
2022-08-22T01:52:39.009Z,100894.41
2022-08-22T01:55:48.021Z,100904.84
2022-08-22T01:58:36.968Z,100913.50
2022-08-22T02:01:25.497Z,100908.31
2022-08-22T02:04:18.088Z,100899.63
2022-08-22T02:07:20.011Z,100883.97
2022-08-22T02:10:41.500Z,100894.41
2022-08-22T02:13:41.952Z,100901.34
2022-08-22T02:16:40.122Z,100903.97
2022-08-22T02:19:39.963Z,100894.41
2022-08-22T02:22:56.602Z,100886.56
2022-08-22T02:26:03.077Z,100877.91
2022-08-22T02:29:08.721Z,100877.84
2022-08-22T02:32:00.687Z,100876.13
2022-08-22T02:34:55.244Z,100888.31
2022-08-22T02:38:05.345Z,100899.59
2022-08-22T02:41:04.254Z,100903.94
2022-08-22T02:43:57.188Z,100883.94
2022-08-22T02:46:51.331Z,100883.97
2022-08-22T02:49:51.017Z,100887.44
2022-08-22T02:53:08.508Z,100891.78
2022-08-22T02:56:05.969Z,100872.69
2022-08-22T02:59:12.824Z,100865.72
2022-08-22T03:02:18.714Z,100866.59
2022-08-22T03:05:25.387Z,100881.34
2022-08-22T03:08:27.327Z,100882.22
2022-08-22T03:11:31.352Z,100871.81
2022-08-22T03:14:41.798Z,100866.56
2022-08-22T03:17:33.052Z,100875.22
2022-08-22T03:20:45.403Z,100878.69
2022-08-22T03:23:45.922Z,100883.06
2022-08-22T03:27:00.793Z,100877.84
2022-08-22T03:29:51.202Z,100881.31
2022-08-22T03:32:55.486Z,100880.44
2022-08-22T03:35:46.381Z,100880.41
2022-08-22T03:38:34.318Z,100876.91
2022-08-22T03:41:35.009Z,100870.84
2022-08-22T03:44:51.436Z,100880.41
2022-08-22T03:48:14.525Z,100863.03
2022-08-22T03:51:13.561Z,100859.56
2022-08-22T03:54:20.069Z,100867.34
2022-08-22T03:57:26.863Z,100863.88
2022-08-22T04:00:32.160Z,100872.56
2022-08-22T04:03:59.033Z,100875.16
2022-08-22T04:07:32.309Z,100882.94
2022-08-22T04:10:53.030Z,100874.25
2022-08-22T04:14:03.411Z,100873.31
2022-08-22T04:17:25.316Z,100901.13
2022-08-22T04:20:32.422Z,100907.25
2022-08-22T04:23:42.869Z,100886.41
2022-08-22T04:26:52.589Z,100880.31
2022-08-22T04:29:58.704Z,100882.88
2022-08-22T04:32:51.317Z,100876.78
2022-08-22T04:35:46.121Z,100879.41
2022-08-22T04:38:38.020Z,100873.31
2022-08-22T04:41:48.820Z,100873.31
2022-08-22T04:44:51.913Z,100886.28
2022-08-22T04:47:43.585Z,100893.25
2022-08-22T04:50:43.271Z,100892.41
2022-08-22T04:53:47.388Z,100892.41
2022-08-22T04:56:50.960Z,100897.66
2022-08-22T04:59:36.945Z,100889.81
2022-08-22T05:02:25.967Z,100896.75
2022-08-22T05:05:17.518Z,100904.63
2022-08-22T05:08:06.000Z,100901.22
2022-08-22T05:10:54.074Z,100905.56
2022-08-22T05:13:46.944Z,100907.31
2022-08-22T05:16:40.938Z,100909.97
2022-08-22T05:19:40.017Z,100912.63
2022-08-22T05:22:33.013Z,100914.34
2022-08-22T05:25:24.277Z,100910.00
2022-08-22T05:28:20.920Z,100903.94
2022-08-22T05:31:11.105Z,100903.06
2022-08-22T05:34:04.231Z,100899.63
2022-08-22T05:37:03.783Z,100906.53
2022-08-22T05:39:58.086Z,100906.56
2022-08-22T05:42:43.874Z,100914.44
2022-08-22T05:45:35.165Z,100904.00
2022-08-22T05:48:26.497Z,100904.84
2022-08-22T05:51:24.251Z,100910.06
2022-08-22T05:54:17.118Z,100910.94
2022-08-22T05:57:08.130Z,100927.44
2022-08-22T06:00:01.197Z,100936.09
2022-08-22T06:03:03.384Z,100928.31
2022-08-22T06:05:53.218Z,100927.47
2022-08-22T06:08:48.409Z,100917.03
2022-08-22T06:11:51.940Z,100923.09
2022-08-22T06:14:56.617Z,100931.81
2022-08-22T06:17:47.468Z,100937.84
2022-08-22T06:21:02.481Z,100929.16
2022-08-22T06:23:53.634Z,100932.69
2022-08-22T06:26:48.704Z,100926.56
2022-08-22T06:29:37.801Z,100933.50
2022-08-22T06:32:32.631Z,100927.34
2022-08-22T06:35:40.547Z,100919.44
2022-08-22T06:38:32.005Z,100910.69
2022-08-22T06:41:19.963Z,100908.03
2022-08-22T06:44:06.911Z,100902.69
2022-08-22T06:46:57.475Z,100908.69
2022-08-22T06:49:45.083Z,100894.56
2022-08-22T06:52:37.150Z,100897.88
2022-08-22T06:55:24.981Z,100890.78
2022-08-22T06:58:17.088Z,100880.25
2022-08-22T07:01:12.235Z,100882.81
2022-08-22T07:04:03.156Z,100887.06
2022-08-22T07:06:51.177Z,100900.78
2022-08-22T07:09:40.394Z,100909.19
2022-08-22T07:12:35.492Z,100886.19
2022-08-22T07:15:23.825Z,100902.44
2022-08-22T07:18:14.709Z,100873.69
2022-08-22T07:21:04.700Z,100877.53
2022-08-22T07:23:50.781Z,100848.00
2022-08-22T07:27:18.132Z,100844.91
2022-08-22T07:30:13.092Z,100876.78
2022-08-22T07:33:26.352Z,100845.47
2022-08-22T07:36:36.604Z,100853.38
2022-08-22T07:39:35.291Z,100812.91
2022-08-22T07:42:44.058Z,100805.41
2022-08-22T07:45:32.791Z,100830.09
2022-08-22T07:48:29.157Z,100824.97
2022-08-22T07:51:17.847Z,100785.41
2022-08-22T07:54:07.451Z,100792.44
2022-08-22T07:57:02.148Z,100774.84
2022-08-22T07:59:52.248Z,100780.97
2022-08-22T08:02:44.722Z,100748.81
2022-08-22T08:05:36.978Z,100761.22
2022-08-22T08:08:29.491Z,100813.84
2022-08-22T08:11:16.808Z,100795.19
2022-08-22T08:14:06.468Z,100788.44
2022-08-22T08:17:04.217Z,100793.44
2022-08-22T08:19:50.697Z,100791.38
2022-08-22T08:22:40.057Z,100779.03
2022-08-22T08:25:28.541Z,100754.31
2022-08-22T08:28:14.499Z,100767.41
2022-08-22T08:31:19.374Z,100747.03
2022-08-22T08:34:15.395Z,100767.66
2022-08-22T08:37:21.997Z,100761.34
2022-08-22T08:40:20.993Z,100763.03
2022-08-22T08:43:30.585Z,100770.22
2022-08-22T08:46:25.312Z,100773.78
2022-08-22T08:49:42.180Z,100766.31
2022-08-22T08:52:45.560Z,100751.03
2022-08-22T08:56:03.169Z,100726.22
2022-08-22T08:59:26.059Z,100771.56
2022-08-22T09:02:27.347Z,100736.22
2022-08-22T09:05:48.870Z,100772.41
2022-08-22T09:08:48.616Z,100736.81
2022-08-22T09:12:01.109Z,100755.69
2022-08-22T09:15:01.242Z,100734.75
2022-08-22T09:18:24.833Z,100723.53
2022-08-22T09:21:31.209Z,100753.69
2022-08-22T09:24:35.137Z,100747.91
2022-08-22T09:27:35.121Z,100737.66
2022-08-22T09:30:27.625Z,100729.78
2022-08-22T09:33:21.069Z,100686.94
2022-08-22T09:36:24.352Z,100668.97
2022-08-22T09:39:25.968Z,100702.69
2022-08-22T09:42:23.537Z,100715.41
2022-08-22T09:45:50.093Z,100706.63
2022-08-22T09:48:38.163Z,100719.53
2022-08-22T09:51:35.731Z,100673.72
2022-08-22T09:54:31.111Z,100711.97
2022-08-22T09:57:32.078Z,100733.19
2022-08-22T10:00:23.104Z,100720.66
2022-08-22T10:03:22.803Z,100714.34
2022-08-22T10:06:17.840Z,100738.03
2022-08-22T10:09:31.293Z,100720.00
2022-08-22T10:12:27.122Z,100713.47
2022-08-22T10:15:33.828Z,100704.53
2022-08-22T10:18:53.933Z,100714.94
2022-08-22T10:21:49.593Z,100756.06
2022-08-22T10:25:20.117Z,100812.66
2022-08-22T10:28:37.636Z,100698.78
2022-08-22T10:31:29.016Z,100707.38
2022-08-22T10:34:21.787Z,100707.78
2022-08-22T10:37:28.381Z,100718.97
2022-08-22T10:40:21.716Z,100679.22
2022-08-22T10:43:21.250Z,100676.19
2022-08-22T10:46:27.408Z,100720.81
2022-08-22T10:49:19.466Z,100696.19
2022-08-22T10:52:15.567Z,100693.06
2022-08-22T10:55:20.526Z,100703.06
2022-08-22T10:58:14.364Z,100686.25
2022-08-22T11:01:38.106Z,100727.13
2022-08-22T11:04:37.783Z,100725.63
2022-08-22T11:07:28.962Z,100752.19
2022-08-22T11:10:46.866Z,100706.97
2022-08-22T11:14:12.329Z,100655.78
2022-08-22T11:17:30.304Z,100703.06
2022-08-22T11:20:19.900Z,100665.34
2022-08-22T11:23:29.370Z,100668.84
2022-08-22T11:26:33.598Z,100687.28
2022-08-22T11:29:48.370Z,100678.41
2022-08-22T11:33:01.245Z,100656.44
2022-08-22T11:36:12.850Z,100701.34
2022-08-22T11:39:02.695Z,100677.75
2022-08-22T11:41:52.344Z,100660.28
2022-08-22T11:44:50.151Z,100662.22
2022-08-22T11:47:45.658Z,100685.50
2022-08-22T11:50:38.233Z,100641.91
2022-08-22T11:53:45.940Z,100651.03
2022-08-22T11:56:40.173Z,100646.53
2022-08-22T11:59:40.023Z,100640.47
2022-08-22T12:02:28.644Z,100668.94
2022-08-22T12:05:26.493Z,100643.16
2022-08-22T12:08:30.122Z,100635.13
2022-08-22T12:11:56.912Z,100603.16
2022-08-22T12:14:42.844Z,100674.22
2022-08-22T12:17:55.687Z,100632.00
2022-08-22T12:20:55.702Z,100618.91
2022-08-22T12:24:06.112Z,100582.38
2022-08-22T12:27:28.578Z,100587.88
2022-08-22T12:30:57.856Z,100583.91
2022-08-22T12:34:24.386Z,100581.75
2022-08-22T12:37:20.862Z,100596.38
2022-08-22T12:40:32.067Z,100559.63
2022-08-22T12:43:24.509Z,100560.75
2022-08-22T12:46:25.358Z,100614.56
2022-08-22T12:49:32.120Z,100569.00
2022-08-22T12:52:44.286Z,100557.75
2022-08-22T12:55:48.173Z,100568.63
2022-08-22T12:58:45.937Z,100562.09
2022-08-22T13:01:43.133Z,100637.56
2022-08-22T13:04:34.091Z,100563.06
2022-08-22T13:07:27.830Z,100561.78
2022-08-22T13:10:14.083Z,100582.50
2022-08-22T13:13:11.906Z,100633.94
2022-08-22T13:16:16.268Z,100585.88
2022-08-22T13:19:30.937Z,100568.25
2022-08-22T13:22:25.585Z,100612.66
2022-08-22T13:25:29.591Z,100552.72
2022-08-22T13:28:15.065Z,100553.22
2022-08-22T13:31:02.643Z,100600.19
2022-08-22T13:33:48.584Z,100570.19
2022-08-22T13:36:51.622Z,100600.78
2022-08-22T13:39:42.330Z,100570.78
2022-08-22T13:42:30.954Z,100543.25
2022-08-22T13:45:28.007Z,100587.53
2022-08-22T13:48:15.099Z,100547.84
2022-08-22T13:51:13.856Z,100529.63
2022-08-22T13:54:10.948Z,100505.31
2022-08-22T13:57:08.746Z,100576.75
2022-08-22T14:00:07.798Z,100540.69
2022-08-22T14:03:25.385Z,100538.44
2022-08-22T14:06:37.425Z,100564.66
2022-08-22T14:09:45.338Z,100559.25
2022-08-22T14:12:57.062Z,100537.41
2022-08-22T14:15:45.055Z,100529.44
2022-08-22T14:18:35.621Z,100550.19
2022-08-22T14:21:39.988Z,100557.25
2022-08-22T14:24:55.942Z,100612.63
2022-08-22T14:27:55.011Z,100533.19
2022-08-22T14:31:00.935Z,100583.94
2022-08-22T14:33:52.696Z,100523.94
2022-08-22T14:36:48.708Z,100520.41
2022-08-22T14:39:44.308Z,100547.91
2022-08-22T14:42:58.699Z,100609.06
2022-08-22T14:45:54.220Z,100541.53
2022-08-22T14:49:06.388Z,100528.47
2022-08-22T14:51:57.941Z,100549.56
2022-08-22T14:54:43.276Z,100487.91
2022-08-22T14:57:30.068Z,100521.56
2022-08-22T15:00:25.764Z,100548.38
2022-08-22T15:03:19.659Z,100525.72
2022-08-22T15:06:10.958Z,100540.50
2022-08-22T15:08:57.711Z,100564.13
2022-08-22T15:11:48.013Z,100580.25
2022-08-22T15:14:37.412Z,100546.13
2022-08-22T15:17:44.476Z,100558.03
2022-08-22T15:20:38.216Z,100605.53
2022-08-22T15:23:32.054Z,100609.25
2022-08-22T15:26:24.080Z,100584.81
2022-08-22T15:29:16.933Z,100601.31
2022-08-22T15:32:03.880Z,100617.91
2022-08-22T15:34:52.362Z,100622.09
2022-08-22T15:38:01.544Z,100606.31
2022-08-22T15:40:46.947Z,100606.16
2022-08-22T15:43:44.104Z,100598.56
2022-08-22T15:46:37.221Z,100609.97
2022-08-22T15:49:22.128Z,100587.09
2022-08-22T15:52:19.875Z,100585.09
2022-08-22T15:55:16.453Z,100638.75
2022-08-22T15:58:09.912Z,100610.84
2022-08-22T16:01:18.797Z,100563.19
2022-08-22T16:04:08.181Z,100619.09
2022-08-22T16:06:56.917Z,100540.31
2022-08-22T16:09:49.235Z,100607.47
2022-08-22T16:12:44.816Z,100640.31
2022-08-22T16:15:51.325Z,100646.63
2022-08-22T16:18:39.680Z,100657.59
2022-08-22T16:21:25.069Z,100667.75
2022-08-22T16:24:10.043Z,100619.91
2022-08-22T16:26:55.641Z,100628.78
2022-08-22T16:29:42.009Z,100610.72
2022-08-22T16:32:27.870Z,100610.22
2022-08-22T16:35:51.213Z,100553.56
2022-08-22T16:40:59.118Z,100612.06
2022-08-22T16:43:52.687Z,100618.63
2022-08-22T16:46:43.874Z,100623.66
2022-08-22T16:49:33.977Z,100588.94
2022-08-22T16:52:25.320Z,100575.97
2022-08-22T16:55:29.060Z,100611.41
2022-08-22T16:58:35.812Z,100606.63
2022-08-22T17:01:50.024Z,100616.78
2022-08-22T17:04:50.257Z,100584.63
2022-08-22T17:08:00.239Z,100585.47
2022-08-22T17:11:08.358Z,100588.97
2022-08-22T17:14:20.071Z,100607.97
2022-08-22T17:17:11.087Z,100603.94
2022-08-22T17:20:04.677Z,100600.03
2022-08-22T17:22:55.835Z,100621.63
2022-08-22T17:26:26.003Z,100620.09
2022-08-22T17:29:38.384Z,100621.16
2022-08-22T17:32:32.548Z,100642.28
2022-08-22T17:35:32.886Z,100663.00
2022-08-22T17:38:32.165Z,100659.38
2022-08-22T17:41:38.050Z,100656.91
2022-08-22T17:44:49.500Z,100653.28
2022-08-22T17:47:46.940Z,100660.25
2022-08-22T17:50:54.108Z,100657.84
2022-08-22T17:53:53.563Z,100648.34
2022-08-22T17:57:05.375Z,100653.75
2022-08-22T18:00:00.507Z,100659.41
2022-08-22T18:03:23.548Z,100644.16
2022-08-22T18:06:23.608Z,100650.88
2022-08-22T18:09:25.478Z,100655.25
2022-08-22T18:12:20.420Z,100654.25
2022-08-22T18:15:13.454Z,100651.59
2022-08-22T18:18:31.202Z,100680.25
2022-08-22T18:21:30.384Z,100647.94
2022-08-22T18:24:49.523Z,100639.97
2022-08-22T18:27:59.670Z,100656.44
2022-08-22T18:30:55.227Z,100698.44
2022-08-22T18:33:53.782Z,100675.75
2022-08-22T18:36:48.720Z,100661.13
2022-08-22T18:39:46.606Z,100631.63
2022-08-22T18:42:41.179Z,100651.06
2022-08-22T18:45:45.262Z,100637.94
2022-08-22T18:48:59.224Z,100644.88
2022-08-22T18:52:05.237Z,100686.88
2022-08-22T18:55:18.153Z,100644.94
2022-08-22T18:58:26.718Z,100650.53
2022-08-22T19:01:47.103Z,100667.19
2022-08-22T19:05:10.041Z,100662.81
2022-08-22T19:08:04.307Z,100686.25
2022-08-22T19:11:36.848Z,100675.03
2022-08-22T19:14:25.084Z,100668.38
2022-08-22T19:18:01.110Z,100663.88
2022-08-22T19:21:32.352Z,100669.94
2022-08-22T19:24:20.316Z,100684.84
2022-08-22T19:27:18.154Z,100661.03
2022-08-22T19:30:28.089Z,100644.19
2022-08-22T19:33:19.314Z,100643.22
2022-08-22T19:36:30.016Z,100683.41
2022-08-22T19:39:41.139Z,100645.59
2022-08-22T19:42:26.373Z,100643.00
2022-08-22T19:45:25.877Z,100632.31
2022-08-22T19:48:14.379Z,100674.78
2022-08-22T19:51:27.419Z,100671.22
2022-08-22T19:54:22.299Z,100645.78
2022-08-22T19:57:35.440Z,100643.44
2022-08-22T20:00:38.965Z,100660.28
2022-08-22T20:03:53.701Z,100673.47
2022-08-22T20:07:03.820Z,100637.63
2022-08-22T20:10:14.672Z,100665.88
2022-08-22T20:13:00.112Z,100657.97
2022-08-22T20:16:04.236Z,100668.41
2022-08-22T20:19:15.314Z,100643.06
2022-08-22T20:22:03.528Z,100644.72
2022-08-22T20:24:52.258Z,100664.81
2022-08-22T20:27:47.925Z,100640.41
2022-08-22T20:30:42.891Z,100671.97
2022-08-22T20:33:33.154Z,100666.78
2022-08-22T20:36:27.848Z,100693.19
2022-08-22T20:39:35.769Z,100685.63
2022-08-22T20:42:21.370Z,100652.22
2022-08-22T20:45:12.182Z,100668.94
2022-08-22T20:47:57.949Z,100697.88
2022-08-22T20:50:43.392Z,100674.28
2022-08-22T20:53:28.601Z,100654.16
2022-08-22T20:56:14.124Z,100656.84
2022-08-22T20:59:01.214Z,100641.25
2022-08-22T21:01:47.234Z,100630.72
2022-08-22T21:04:49.629Z,100628.53
2022-08-22T21:07:41.390Z,100633.94
2022-08-22T21:10:30.371Z,100630.56
2022-08-22T21:13:26.174Z,100621.81
2022-08-22T21:16:16.562Z,100639.63
2022-08-22T21:19:01.952Z,100634.34
2022-08-22T21:21:47.256Z,100626.66
2022-08-22T21:24:32.719Z,100631.22
2022-08-22T21:27:26.836Z,100629.63
2022-08-22T21:30:24.822Z,100649.84
2022-08-22T21:33:23.696Z,100626.34
2022-08-22T21:36:13.603Z,100625.59
2022-08-22T21:39:11.361Z,100641.22
2022-08-22T21:41:59.721Z,100620.41
2022-08-22T21:44:59.130Z,100616.03
2022-08-22T21:47:44.777Z,100631.81
2022-08-22T21:50:33.730Z,100616.81
2022-08-22T21:53:27.143Z,100623.81
2022-08-22T21:56:15.332Z,100616.00
2022-08-22T21:59:51.934Z,100613.41
2022-08-22T22:02:44.412Z,100628.34
2022-08-22T22:05:29.787Z,100625.59
2022-08-22T22:08:15.688Z,100625.50
2022-08-22T22:11:06.157Z,100626.31
2022-08-22T22:13:53.860Z,100619.41
2022-08-22T22:16:39.342Z,100633.28
2022-08-22T22:19:24.313Z,100628.97
2022-08-22T22:22:09.546Z,100630.00
2022-08-22T22:24:54.751Z,100628.25
2022-08-22T22:27:40.216Z,100646.56
2022-08-22T22:30:25.486Z,100630.16
2022-08-22T22:33:10.567Z,100642.34
2022-08-22T22:35:58.734Z,100663.47
2022-08-22T22:38:44.398Z,100665.91
2022-08-22T22:41:29.578Z,100655.47
2022-08-22T22:44:14.510Z,100657.44
2022-08-22T22:47:02.618Z,100669.66
2022-08-22T22:49:47.947Z,100664.38
2022-08-22T22:52:33.089Z,100645.94
2022-08-22T22:55:24.363Z,100648.78
2022-08-22T22:58:10.308Z,100666.28
2022-08-22T23:00:56.337Z,100667.34
2022-08-22T23:03:42.697Z,100653.53
2022-08-22T23:06:30.162Z,100669.22
2022-08-22T23:09:15.497Z,100664.78
2022-08-22T23:12:03.737Z,100683.03
2022-08-22T23:14:49.261Z,100660.28
2022-08-22T23:17:35.120Z,100694.41
2022-08-22T23:20:20.235Z,100677.88
2022-08-22T23:23:05.763Z,100705.13
2022-08-22T23:25:50.630Z,100681.44
2022-08-22T23:28:35.477Z,100659.72
2022-08-22T23:31:32.626Z,100668.47
2022-08-22T23:34:21.984Z,100683.22
2022-08-22T23:37:07.644Z,100692.91
2022-08-22T23:39:53.050Z,100689.44
2022-08-22T23:42:39.031Z,100673.72
2022-08-22T23:45:24.003Z,100655.34
2022-08-22T23:48:09.420Z,100678.16
2022-08-22T23:50:54.859Z,100657.91
2022-08-22T23:53:40.646Z,100665.75
2022-08-22T23:56:36.456Z,100650.88
2022-08-22T23:59:24.901Z,100651.72
